Home   Weather   Finland   Helsinki   Past weeks
Flag for Finland

Past Weather in Helsinki, Finland — Yesterday and Last 2 Weeks

Currently: 68 °F. Passing clouds. (Weather station: Helsinki-Vantaa, Finland). See more current weather

Past Weather in Helsinki — Graph

°F

Helsinki Temperature Yesterday

Maximum temperature yesterday: 64 °F (at 2:20 pm)
Minimum temperature yesterday: 41 °F (at 3:20 am)
Average temperature yesterday: 55 °F

High & Low Weather Summary for the Past Weeks

 TemperatureHumidityPressure
High79 °F (May 16, 4:20 pm)100% (May 10, 3:50 am)30.33 "Hg (May 10, 3:50 am)
Low30 °F (May 8, 3:50 am)15% (May 20, 6:50 pm)29.80 "Hg (May 10, 6:20 am)
Average54 °F52%30.12 "Hg
* Reported May 7 1:20 pm — May 22 1:20 pm, Helsinki. Weather by CustomWeather, © 2024

Note: Actual official high and low records may vary slightly from our data, if they occured in-between our weather recording intervals... More about our weather records

Helsinki Weather History for the Previous 24 Hours

Scroll right to see more
 ConditionsComfort  
Time TempWeatherWind HumidityBarometerVisibility
1:20 pm
Wed, May 22
66 °FPassing clouds.8 mph28%30.30 "HgN/A
12:50 pm66 °FPassing clouds.7 mph26%30.30 "HgN/A
12:20 pm66 °FPassing clouds.7 mph26%30.30 "HgN/A
11:20 am64 °FPassing clouds.7 mph30%30.33 "HgN/A
10:50 am63 °FPassing clouds.7 mph30%30.30 "HgN/A
10:20 am63 °FPassing clouds.6 mph32%30.33 "HgN/A
9:50 am64 °FPassing clouds.6 mph34%30.33 "HgN/A
9:20 am61 °FPassing clouds.6 mph36%30.33 "HgN/A
8:50 am59 °FSunny.5 mph42%30.30 "Hg10 mi
8:20 am59 °FPassing clouds.3 mph42%30.30 "HgN/A
7:50 am57 °FPassing clouds.6 mph44%30.30 "HgN/A
7:20 am55 °FSunny.2 mph44%30.30 "Hg10 mi
6:50 am52 °FSunny.3 mph62%30.30 "Hg10 mi
6:20 am45 °FSunny.1 mph81%30.30 "Hg10 mi
5:50 am39 °FLight fog.2 mph87%30.30 "HgN/A
5:20 am39 °FSunny.2 mph87%30.30 "Hg10 mi
4:50 am39 °FPassing clouds.3 mph81%30.30 "HgN/A
4:20 am39 °FClear.No wind81%30.30 "Hg10 mi
3:50 am39 °FClear.No wind81%30.27 "Hg10 mi
2:50 am39 °FClear.2 mph81%30.27 "Hg10 mi
2:20 am39 °FClear.1 mph81%30.27 "Hg10 mi
1:50 am41 °FClear.No wind76%30.27 "Hg10 mi
1:20 am41 °FClear.2 mph76%30.27 "Hg10 mi
12:50 am41 °FClear.1 mph76%30.27 "Hg10 mi
12:20 am43 °FClear.No wind76%30.27 "Hg10 mi
11:20 pm
Tue, May 21
46 °FClear.3 mph66%30.27 "Hg10 mi
10:50 pm46 °FPassing clouds.3 mph66%30.27 "HgN/A
10:20 pm55 °FClear.6 mph38%30.27 "Hg10 mi
9:50 pm57 °FSunny.6 mph39%30.24 "Hg10 mi
9:20 pm61 °FPassing clouds.5 mph34%30.24 "HgN/A
8:50 pm61 °FPassing clouds.5 mph31%30.24 "HgN/A
8:20 pm63 °FSunny.6 mph30%30.24 "Hg10 mi
7:50 pm63 °FPassing clouds.6 mph30%30.24 "HgN/A
7:20 pm63 °FPassing clouds.7 mph30%30.24 "HgN/A
6:50 pm64 °FPassing clouds.6 mph28%30.24 "HgN/A
6:20 pm64 °FPassing clouds.9 mph30%30.24 "HgN/A
5:50 pm64 °FPassing clouds.8 mph30%30.24 "HgN/A
5:20 pm64 °FPassing clouds.7 mph28%30.24 "HgN/A
4:20 pm64 °FSunny.5 mph30%30.24 "Hg10 mi
3:50 pm64 °FPassing clouds.10 mph32%30.24 "HgN/A
2:50 pm64 °FPassing clouds.10 mph32%30.27 "HgN/A
2:20 pm64 °FPassing clouds.7 mph24%30.27 "HgN/A
Weather by CustomWeather, © 2024

See weather overview